Nearby METAR Reports

 

KPAE - Everett, Washington, USA
Distance from station: NW 15mi, 25km
Updated: 02/27/2020 1:53pm
Clear
Clear
 Wind from WSW
Wind: WSW 5 mph , 7 km/h
Temperature: 52°F , 11°C
Dew Point: 39°F , 4°C
Humidity: 62%
Barometer: 30.40 inHg , 1029.5 hPa
Clouds: Clear
Visibility: 10 miles , 16 km
2020/02/27 21:53 KPAE 272153Z 25004KT 10SM CLR 11/04 A3040 RMK AO2 SLP295 T01110044
KBFI - Seattle/Boeing, Washington, USA
Distance from station: SW 20mi, 31km
Updated: 02/27/2020 1:53pm
Partly cloudy
Partly cloudy
 Wind from calm
Wind: Calm
Temperature: 55°F , 13°C
Dew Point: 37°F , 3°C
Humidity: 51%
Barometer: 30.39 inHg , 1029.1 hPa
Clouds: Partly cloudy
Visibility: 10 miles , 16 km
Cloud details: Partly cloudy 25000 ft
2020/02/27 21:53 KBFI 272153Z 00000KT 10SM SCT250 13/03 A3039 RMK AO2 SLP292 T01280028
KSEA - Seattle/Metro, Washington, USA
Distance from station: SSW 25mi, 41km
Updated: 02/27/2020 1:53pm
Mostly cloudy
Mostly cloudy
 Wind from W
Wind: W 7 mph , 11 km/h
Temperature: 54°F , 12°C
Dew Point: 37°F , 3°C
Humidity: 54%
Barometer: 30.39 inHg , 1029.1 hPa
Clouds: Mostly cloudy
Visibility: 10 miles , 16 km
Cloud details: Few Clouds 3000 ft
Mostly cloudy 25000 ft
2020/02/27 21:53 KSEA 272153Z 26006KT 10SM FEW030 BKN250 12/03 A3039 RMK AO2 SLP299 T01220033
 
KAWO - Arlington Muni, Washington, USA
Distance from station: NNW 28mi, 46km
Updated: 02/27/2020 1:56pm
Mostly cloudy
Mostly cloudy
 Wind from SSW
Wind: SSW 3 mph , 6 km/h
Temperature: 55°F , 13°C
Dew Point: 37°F , 3°C
Humidity: 51%
Barometer: 30.40 inHg , 1029.5 hPa
Clouds: Mostly cloudy
Visibility: 10 miles , 16 km
Cloud details: Mostly cloudy 7500 ft
2020/02/27 21:56 KAWO 272156Z AUTO 20003KT 10SM BKN075 13/03 A3040 RMK AO2 SLP300 T01280033
KPWT - Bremerton Ntnl, Washington, USA
Distance from station: WSW 38mi, 61km
Updated: 02/27/2020 1:56pm
Clear
Clear
 Wind from varies
Wind: varies 3 mph , 6 km/h
Temperature: 54°F , 12°C
Dew Point: 41°F , 5°C
Humidity: 63%
Barometer: 30.39 inHg , 1029.1 hPa
Clouds: Clear
Visibility: 10 miles , 16 km
2020/02/27 21:56 KPWT 272156Z AUTO VRB03KT 10SM CLR 12/05 A3039 RMK AO2 SLP295 T01220050
KTIW - Tacoma, Washington, USA
Distance from station: SW 43mi, 69km
Updated: 02/27/2020 1:53pm
Clear
Clear
 Wind from W
Wind: W 6 mph , 9 km/h
Temperature: 52°F , 11°C
Dew Point: 39°F , 4°C
Humidity: 62%
Barometer: 30.40 inHg , 1029.5 hPa
Clouds: Clear
Visibility: 10 miles , 16 km
2020/02/27 21:53 KTIW 272153Z 26005KT 10SM CLR 11/04 A3040 RMK AO2 SLP298 T01110039
 
KPLU - Puyallup/Thun, Washington, USA
Distance from station: SSW 47mi, 76km
Updated: 02/27/2020 2:35pm
Clear
Clear
 Wind from calm
Wind: Calm
Temperature: 59°F , 15°C
Dew Point: 39°F , 4°C
Humidity: 48%
Barometer: 30.37 inHg , 1028.4 hPa
Clouds: Clear
Visibility: 10 miles , 16 km
2020/02/27 22:35 KPLU 272235Z AUTO 00000KT 10SM CLR 15/04 A3037 RMK AO2
KSMP - Stampede Pass, Washington, USA
Distance from station: SE 47mi, 76km
Updated: 02/27/2020 1:56pm
Clear
Clear
 Wind from W
Wind: W 8 mph , 13 km/h
Temperature: 46°F , 8°C
Wind Chill: 42°F , 6°C
Dew Point: 32°F , 0°C
Humidity: 57%
Barometer: 30.34 inHg , 1027.4 hPa
Clouds: Clear
Visibility: 10 miles , 16 km
2020/02/27 21:56 KSMP 272156Z AUTO 27007KT 230V300 10SM CLR 08/00 A3034 RMK AO2 SLP289 T00830000
KNUW - Whidbey Is. Nas, Washington, USA
Distance from station: NW 49mi, 79km
Updated: 02/27/2020 1:56pm
Mostly cloudy
Mostly cloudy
 Wind from varies
Wind: varies 7 mph , 11 km/h
Temperature: 54°F , 12°C
Dew Point: 41°F , 5°C
Humidity: 63%
Barometer: 30.44 inHg , 1030.8 hPa
Clouds: Mostly cloudy
Visibility: 10 miles , 16 km
Cloud details: Few Clouds 1200 ft
Partly cloudy 3400 ft
Mostly cloudy 8000 ft
Mostly cloudy 21000 ft
2020/02/27 21:56 KNUW 272156Z VRB06KT 10SM FEW012 SCT034 BKN080 BKN210 12/05 A3044 RMK SLP309 T01170050
 
KBVS - Burlington/Mt V, Washington, USA
Distance from station: NNW 51mi, 83km
Updated: 02/27/2020 2:35pm
Mostly cloudy
Mostly cloudy
 Wind from varies
Wind: varies 7 mph , 11 km/h
Temperature: 55°F , 13°C
Dew Point: 41°F , 5°C
Humidity: 59%
Barometer: 30.39 inHg , 1029.1 hPa
Clouds: Mostly cloudy
Visibility: 10 miles , 16 km
Cloud details: Mostly cloudy 7500 ft
2020/02/27 22:35 KBVS 272235Z AUTO VRB06KT 10SM BKN075 13/05 A3039 RMK A01
KSHN - Shelton, Washington, USA
Distance from station: SW 63mi, 101km
Updated: 02/27/2020 1:53pm
Clear
Clear
 Wind from WSW
Wind: WSW 14 mph , 22 km/h
Temperature: 55°F , 13°C
Dew Point: 36°F , 2°C
Humidity: 47%
Barometer: 30.37 inHg , 1028.4 hPa
Clouds: Clear
Visibility: 10 miles , 16 km
2020/02/27 21:53 KSHN 272153Z AUTO 24012KT 10SM CLR 13/02 A3037 RMK AO2 SLP287 T01280022
KOLM - Olympia, Washington, USA
Distance from station: SW 68mi, 110km
Updated: 02/27/2020 1:54pm
Clear
Clear
 Wind from N
Wind: N 7 mph , 11 km/h
Temperature: 57°F , 14°C
Dew Point: 39°F , 4°C
Humidity: 51%
Barometer: 30.39 inHg , 1029.1 hPa
Clouds: Clear
Visibility: 10 miles , 16 km
2020/02/27 21:54 KOLM 272154Z 35006KT 10SM CLR 14/04 A3039 RMK AO2 SLP291 T01440039
 
KCLM - Port Angeles, Washington, USA
Distance from station: WNW 72mi, 115km
Updated: 02/27/2020 1:53pm
Partly cloudy
Partly cloudy
 Wind from varies
Wind: varies 6 mph , 9 km/h
Temperature: 48°F , 9°C
Wind Chill: 45°F , 7°C
Dew Point: 39°F , 4°C
Humidity: 71%
Barometer: 30.41 inHg , 1029.8 hPa
Clouds: Partly cloudy
Visibility: 10 miles , 16 km
Cloud details: Partly cloudy 1600 ft
2020/02/27 21:53 KCLM 272153Z AUTO VRB05KT 10SM SCT016 09/04 A3041 RMK AO2 SLP299 T00890044 PNO $
CWYJ - Victoria Univ, British Columbia, Canada
Distance from station: NW 75mi, 121km
Updated: 02/27/2020 2:00pm

 Wind from SE
Wind: SE 2 mph , 4 km/h
Temperature: 50°F , 10°C
Dew Point: 43°F , 6°C
Humidity: 76%
2020/02/27 22:00 CWYJ 272200Z AUTO 14002KT 10/06 RMK AO1 SLP294 T00990060 58017
KBLI - Bellingham, Washington, USA
Distance from station: NNW 75mi, 121km
Updated: 02/27/2020 1:53pm
Mostly cloudy
Mostly cloudy
 Wind from S
Wind: S 3 mph , 6 km/h
Temperature: 52°F , 11°C
Dew Point: 39°F , 4°C
Humidity: 62%
Barometer: 30.40 inHg , 1029.5 hPa
Clouds: Mostly cloudy
Visibility: 10 miles , 16 km
Cloud details: Mostly cloudy 7000 ft
2020/02/27 21:53 KBLI 272153Z 17003KT 10SM BKN070 11/04 A3040 RMK AO2 SLP302 T01060044